Time;durP1;ratioP1;P1;durP2;ratioP2;P2;SDS_P1;SDS_P2;PMS_P1;PMS_P2;Temp;Humidity;BMP_temperature;BMP_pressure;BME280_temperature;BME280_humidity;BME280_pressure;Samples;Min_cycle;Max_cycle;Signal;HPM_P1;HPM_P2
2022/04/10 00:00:22;;;;;;;5.90;3.53;;;7.30;97.60;;;;;;5065155;28;20219;-45
2022/04/10 00:02:49;;;;;;;5.77;3.90;;;7.30;97.60;;;;;;5064277;28;20579;-44
2022/04/10 00:05:19;;;;;;;5.23;3.53;;;7.30;97.60;;;;;;5063660;28;20212;-44
2022/04/10 00:07:48;;;;;;;4.60;3.40;;;7.30;97.70;;;;;;5068337;28;20968;-45
2022/04/10 00:10:16;;;;;;;6.77;3.60;;;7.30;97.80;;;;;;5062696;28;20242;-45
2022/04/10 00:12:45;;;;;;;5.70;3.13;;;7.30;97.70;;;;;;5059512;28;20207;-45
2022/04/10 00:15:17;;;;;;;5.40;3.50;;;7.30;97.80;;;;;;5066605;28;20611;-37
2022/04/10 00:17:44;;;;;;;6.67;3.83;;;7.30;97.80;;;;;;5064170;28;20240;-37
2022/04/10 00:20:21;;;;;;;6.83;3.80;;;7.30;97.80;;;;;;5058097;28;20188;-38
2022/04/10 00:22:49;;;;;;;4.80;3.40;;;7.40;97.90;;;;;;5068309;28;20685;-37
2022/04/10 00:25:20;;;;;;;5.57;3.33;;;7.40;97.90;;;;;;5063980;28;20226;-37
2022/04/10 00:27:49;;;;;;;7.67;3.70;;;7.40;97.90;;;;;;5067124;28;20216;-37
2022/04/10 00:30:19;;;;;;;5.53;3.60;;;7.40;97.90;;;;;;5066692;28;20278;-38
2022/04/10 00:32:47;;;;;;;4.73;3.63;;;7.40;97.90;;;;;;5066109;28;20282;-37
2022/04/10 00:35:16;;;;;;;6.07;3.70;;;7.40;97.90;;;;;;5062497;28;20813;-37
2022/04/10 00:37:43;;;;;;;5.90;3.00;;;7.50;98.00;;;;;;5068317;28;20234;-45
2022/04/10 00:40:15;;;;;;;6.87;3.60;;;7.40;97.90;;;;;;5064005;28;20224;-45
2022/04/10 00:42:49;;;;;;;5.53;3.93;;;7.50;98.00;;;;;;5056752;28;20196;-45
2022/04/10 00:45:17;;;;;;;5.83;3.27;;;7.50;98.10;;;;;;5048930;28;21139;-45
2022/04/10 00:47:50;;;;;;;5.43;3.27;;;7.50;98.00;;;;;;5065572;28;20282;-45
2022/04/10 00:50:19;;;;;;;5.00;3.60;;;7.50;98.10;;;;;;5064181;28;20372;-45
2022/04/10 00:52:52;;;;;;;4.30;3.20;;;7.50;98.10;;;;;;5051091;28;20223;-45
2022/04/10 00:55:22;;;;;;;6.70;3.40;;;7.50;98.10;;;;;;5064989;28;20250;-45
2022/04/10 00:57:49;;;;;;;5.70;3.60;;;7.50;98.10;;;;;;5062969;28;20212;-45
2022/04/10 01:00:19;;;;;;;7.47;3.30;;;7.50;98.10;;;;;;5063785;28;20205;-45
2022/04/10 01:02:46;;;;;;;8.13;3.47;;;7.50;98.20;;;;;;5066033;28;20306;-45
2022/04/10 01:05:16;;;;;;;4.63;3.27;;;7.50;98.10;;;;;;5063085;28;20594;-44
2022/04/10 01:07:44;;;;;;;7.53;3.50;;;7.50;98.20;;;;;;5062685;28;20203;-43
2022/04/10 01:10:11;;;;;;;5.63;3.60;;;7.60;98.30;;;;;;5068287;28;20294;-48
2022/04/10 01:12:42;;;;;;;6.03;4.07;;;7.60;98.30;;;;;;5065302;28;20721;-44
2022/04/10 01:15:09;;;;;;;4.40;3.23;;;7.60;98.30;;;;;;5062845;28;20206;-45
2022/04/10 01:17:41;;;;;;;6.07;3.57;;;7.60;98.30;;;;;;5065432;28;20212;-45
2022/04/10 01:20:11;;;;;;;7.00;3.60;;;7.60;98.30;;;;;;5065241;28;20592;-44
2022/04/10 01:22:40;;;;;;;5.70;3.57;;;7.70;98.40;;;;;;5066436;28;20242;-44
2022/04/10 01:25:14;;;;;;;5.13;3.53;;;7.70;98.40;;;;;;5065341;28;20510;-44
2022/04/10 01:27:44;;;;;;;6.17;3.80;;;7.70;98.40;;;;;;5065934;28;20575;-44
2022/04/10 01:30:15;;;;;;;4.40;3.47;;;7.80;98.80;;;;;;5062514;28;20203;-43
2022/04/10 01:32:42;;;;;;;6.73;4.00;;;7.80;98.40;;;;;;5063576;28;20308;-45
2022/04/10 01:35:10;;;;;;;7.13;3.80;;;7.80;98.50;;;;;;5062690;28;20738;-45
2022/04/10 01:37:40;;;;;;;5.67;3.50;;;7.70;98.40;;;;;;5063674;28;20600;-42
2022/04/10 01:40:13;;;;;;;5.03;3.30;;;7.80;98.50;;;;;;5065646;28;20657;-43
2022/04/10 01:42:45;;;;;;;5.50;3.60;;;7.80;98.50;;;;;;5061055;28;20242;-37
2022/04/10 01:45:15;;;;;;;5.63;3.90;;;7.80;98.50;;;;;;5050615;28;20210;-37
2022/04/10 01:47:46;;;;;;;5.70;3.40;;;7.80;98.50;;;;;;5058193;28;20220;-37
2022/04/10 01:50:16;;;;;;;4.67;3.53;;;7.80;98.50;;;;;;5065285;28;20265;-37
2022/04/10 01:52:43;;;;;;;5.50;3.47;;;7.80;98.50;;;;;;5060551;28;20224;-36
2022/04/10 01:55:15;;;;;;;6.87;3.87;;;7.80;98.50;;;;;;5055494;28;20284;-43
2022/04/10 01:57:44;;;;;;;5.40;3.70;;;7.70;98.50;;;;;;5061131;28;20744;-42
2022/04/10 02:00:14;;;;;;;8.30;4.10;;;7.70;98.50;;;;;;5060165;28;20204;-43
2022/04/10 02:02:44;;;;;;;6.27;4.47;;;7.80;98.60;;;;;;5068886;28;20310;-45
2022/04/10 02:05:13;;;;;;;6.23;4.53;;;7.70;98.50;;;;;;5066707;28;20226;-43
2022/04/10 02:07:42;;;;;;;5.40;4.13;;;7.70;98.50;;;;;;5069816;28;20221;-46
2022/04/10 02:10:10;;;;;;;7.50;4.23;;;7.70;98.50;;;;;;5069246;28;20578;-43
2022/04/10 02:12:41;;;;;;;7.77;4.43;;;7.70;98.50;;;;;;5069836;28;20219;-46
2022/04/10 02:15:11;;;;;;;6.83;4.40;;;7.70;98.60;;;;;;5055865;28;20214;-45
2022/04/10 02:17:38;;;;;;;7.80;4.30;;;7.70;98.60;;;;;;5059083;28;20655;-46
2022/04/10 02:20:06;;;;;;;5.03;4.10;;;7.70;98.60;;;;;;5066081;28;20711;-44
2022/04/10 02:22:33;;;;;;;9.23;4.40;;;7.60;98.50;;;;;;5070732;28;20306;-38
2022/04/10 02:25:03;;;;;;;8.20;4.90;;;7.60;98.60;;;;;;5067190;28;20661;-38
2022/04/10 02:27:33;;;;;;;7.83;4.97;;;7.60;98.60;;;;;;5068942;28;20224;-37
2022/04/10 02:30:00;;;;;;;6.83;4.70;;;7.60;98.60;;;;;;5069441;28;20206;-37
2022/04/10 02:32:30;;;;;;;6.43;4.53;;;7.60;98.60;;;;;;5060769;28;20308;-38
2022/04/10 02:35:02;;;;;;;7.40;4.63;;;7.50;98.60;;;;;;5059959;28;20254;-38
2022/04/10 02:37:29;;;;;;;9.30;4.50;;;7.50;98.60;;;;;;5068173;28;20253;-38
2022/04/10 02:40:01;;;;;;;7.63;4.67;;;7.50;98.60;;;;;;5068208;28;20225;-38
2022/04/10 02:42:33;;;;;;;7.27;4.40;;;7.40;98.60;;;;;;5062741;28;20196;-38
2022/04/10 02:45:04;;;;;;;10.73;5.00;;;7.40;98.60;;;;;;5065424;28;20219;-37
2022/04/10 02:47:34;;;;;;;6.93;5.00;;;7.40;98.60;;;;;;5066930;28;20967;-38
2022/04/10 02:50:01;;;;;;;6.90;4.77;;;7.40;98.50;;;;;;5066999;28;20204;-38
2022/04/10 02:52:28;;;;;;;8.73;5.10;;;7.30;98.50;;;;;;5067925;28;20216;-38
2022/04/10 02:55:01;;;;;;;5.23;4.10;;;7.30;98.50;;;;;;5069145;28;20285;-37
2022/04/10 02:57:30;;;;;;;6.97;4.93;;;7.20;98.50;;;;;;5067480;28;20203;-38
2022/04/10 02:59:57;;;;;;;7.43;4.77;;;7.20;98.50;;;;;;5068055;28;20200;-38
2022/04/10 03:02:27;;;;;;;7.07;4.90;;;7.10;98.50;;;;;;5068575;28;20211;-38
2022/04/10 03:04:57;;;;;;;7.23;5.37;;;7.10;98.50;;;;;;5062848;28;20255;-38
2022/04/10 03:07:27;;;;;;;8.43;4.87;;;7.10;98.50;;;;;;5059025;28;20258;-38
2022/04/10 03:09:54;;;;;;;7.93;5.13;;;7.10;98.50;;;;;;5062387;28;20200;-37
2022/04/10 03:12:28;;;;;;;7.47;4.77;;;7.00;98.50;;;;;;5067380;28;20259;-38
2022/04/10 03:15:00;;;;;;;7.60;4.67;;;7.00;98.50;;;;;;5067285;28;20199;-37
2022/04/10 03:17:30;;;;;;;7.73;4.80;;;7.00;98.60;;;;;;5066455;28;20203;-37
2022/04/10 03:19:59;;;;;;;7.63;5.37;;;6.90;98.50;;;;;;5075407;28;20310;-37
2022/04/10 03:22:27;;;;;;;7.03;5.20;;;6.90;98.50;;;;;;5077825;28;20673;-37
2022/04/10 03:24:56;;;;;;;6.73;4.60;;;7.00;98.60;;;;;;5058659;28;20279;-37
2022/04/10 03:27:26;;;;;;;7.13;4.90;;;7.00;98.60;;;;;;5061149;28;20226;-37
2022/04/10 03:29:54;;;;;;;7.20;4.80;;;7.00;98.60;;;;;;5067596;28;20211;-37
2022/04/10 03:32:21;;;;;;;9.93;5.40;;;6.90;98.60;;;;;;5069181;28;20595;-45
2022/04/10 03:34:50;;;;;;;7.90;4.90;;;6.90;98.60;;;;;;5066427;28;20257;-45
2022/04/10 03:37:20;;;;;;;8.57;4.90;;;6.90;98.50;;;;;;5065510;28;20212;-45
2022/04/10 03:39:47;;;;;;;7.20;5.03;;;6.90;98.60;;;;;;5066383;28;20196;-45
2022/04/10 03:42:17;;;;;;;6.63;4.90;;;6.90;98.60;;;;;;5060088;28;20204;-45
2022/04/10 03:44:44;;;;;;;5.50;4.53;;;6.80;98.60;;;;;;5056239;28;20238;-45
2022/04/10 03:47:13;;;;;;;8.63;5.03;;;6.80;98.60;;;;;;5064814;28;20207;-46
2022/04/10 03:49:44;;;;;;;8.33;5.23;;;6.80;98.60;;;;;;5067844;28;20247;-38
2022/04/10 03:52:16;;;;;;;6.47;4.70;;;6.80;98.70;;;;;;5066674;28;20285;-38
2022/04/10 03:54:43;;;;;;;7.03;5.10;;;6.80;98.60;;;;;;5063968;28;20620;-38
2022/04/10 03:57:17;;;;;;;7.67;5.07;;;6.70;98.60;;;;;;5049393;28;21010;-37
2022/04/10 03:59:45;;;;;;;7.63;4.73;;;6.80;98.50;;;;;;5056634;28;20246;-38
2022/04/10 04:02:17;;;;;;;9.07;5.57;;;6.70;98.50;;;;;;5066932;28;20314;-38
2022/04/10 04:04:45;;;;;;;8.13;5.20;;;6.70;98.50;;;;;;5063108;28;20225;-38
2022/04/10 04:07:15;;;;;;;6.63;4.63;;;6.70;98.50;;;;;;5065382;28;20253;-37
2022/04/10 04:09:46;;;;;;;9.30;5.30;;;6.70;98.50;;;;;;5064735;28;20211;-37
2022/04/10 04:12:13;;;;;;;8.17;5.93;;;6.60;98.50;;;;;;5060813;28;20232;-37
2022/04/10 04:14:43;;;;;;;9.07;5.90;;;6.60;98.50;;;;;;5055454;28;20196;-37
2022/04/10 04:17:10;;;;;;;5.80;4.67;;;6.60;98.40;;;;;;5061158;28;20612;-38
2022/04/10 04:19:39;;;;;;;7.80;5.50;;;6.60;98.50;;;;;;5065731;28;20745;-38
2022/04/10 04:22:11;;;;;;;7.13;4.97;;;6.50;98.40;;;;;;5067411;28;20219;-37
2022/04/10 04:24:38;;;;;;;8.80;5.50;;;6.50;98.50;;;;;;5064903;28;20206;-37
2022/04/10 04:27:06;;;;;;;7.60;5.53;;;6.40;98.30;;;;;;5066518;28;20203;-37
2022/04/10 04:29:38;;;;;;;7.07;5.77;;;6.40;98.40;;;;;;5057428;28;20216;-37
2022/04/10 04:32:11;;;;;;;8.20;5.67;;;6.40;98.40;;;;;;5055510;28;20239;-37
2022/04/10 04:34:43;;;;;;;7.23;5.87;;;6.40;98.50;;;;;;5053021;28;20276;-37
2022/04/10 04:37:12;;;;;;;8.40;5.73;;;6.30;98.40;;;;;;5065698;28;20220;-38
2022/04/10 04:39:43;;;;;;;8.23;5.77;;;6.30;98.40;;;;;;5065771;28;20708;-37
2022/04/10 04:42:12;;;;;;;9.00;5.50;;;6.20;98.50;;;;;;5064226;28;20207;-37
2022/04/10 04:44:42;;;;;;;9.07;5.93;;;6.20;98.40;;;;;;5064831;28;20709;-37
2022/04/10 04:47:09;;;;;;;7.70;5.77;;;6.20;98.30;;;;;;5066202;28;20578;-37
2022/04/10 04:49:36;;;;;;;7.57;5.80;;;6.20;98.30;;;;;;5064107;28;20517;-38
2022/04/10 04:52:04;;;;;;;7.97;5.50;;;6.10;98.30;;;;;;5066980;28;20314;-38
2022/04/10 04:54:31;;;;;;;8.67;5.97;;;6.10;98.40;;;;;;5065855;28;20235;-38
2022/04/10 04:57:03;;;;;;;8.50;6.03;;;6.00;98.40;;;;;;5066618;28;20215;-38
2022/04/10 04:59:33;;;;;;;8.60;6.00;;;6.00;98.50;;;;;;5063594;28;20876;-38
2022/04/10 05:02:08;;;;;;;9.23;6.20;;;6.00;98.40;;;;;;5065361;28;20952;-37
2022/04/10 05:04:40;;;;;;;8.00;5.73;;;6.00;98.40;;;;;;5064019;28;20242;-38
2022/04/10 05:07:10;;;;;;;10.00;6.80;;;6.00;98.50;;;;;;5062234;28;20208;-38
2022/04/10 05:09:40;;;;;;;11.23;6.20;;;6.00;98.40;;;;;;5056535;28;20681;-37
2022/04/10 05:12:10;;;;;;;9.10;6.23;;;5.90;98.40;;;;;;5067027;28;20792;-38
2022/04/10 05:14:37;;;;;;;7.23;5.83;;;5.90;98.40;;;;;;5064116;28;20211;-37
2022/04/10 05:17:07;;;;;;;10.67;6.40;;;5.90;98.40;;;;;;5066271;28;20212;-37
2022/04/10 05:19:38;;;;;;;11.63;6.53;;;5.90;98.40;;;;;;5063002;28;20567;-37
2022/04/10 05:22:06;;;;;;;9.07;6.30;;;5.90;98.80;;;;;;5056196;28;20211;-37
2022/04/10 05:24:33;;;;;;;9.73;6.37;;;5.90;98.40;;;;;;5055715;28;20481;-37
2022/04/10 05:27:02;;;;;;;9.50;6.70;;;5.80;98.40;;;;;;5054305;28;20203;-37
2022/04/10 05:29:29;;;;;;;9.60;6.60;;;5.80;98.40;;;;;;5062114;28;20749;-37
2022/04/10 05:31:57;;;;;;;10.70;6.37;;;5.80;98.40;;;;;;5066262;28;20304;-37
2022/04/10 05:34:24;;;;;;;10.70;6.40;;;5.80;98.40;;;;;;5047180;28;20200;-37
2022/04/10 05:36:54;;;;;;;10.90;7.07;;;5.80;98.40;;;;;;5064752;28;20200;-37
2022/04/10 05:39:21;;;;;;;9.73;6.37;;;5.80;98.50;;;;;;5067039;28;20275;-37
2022/04/10 05:41:51;;;;;;;9.13;6.97;;;5.80;98.50;;;;;;5051046;28;20248;-37
2022/04/10 05:44:20;;;;;;;9.83;6.40;;;5.80;98.40;;;;;;5047287;28;20246;-37
2022/04/10 05:46:50;;;;;;;12.93;8.23;;;5.80;98.50;;;;;;5056575;28;20211;-38
2022/04/10 05:49:17;;;;;;;11.00;7.60;;;5.80;98.50;;;;;;5058415;28;20281;-37
2022/04/10 05:51:47;;;;;;;8.63;6.80;;;5.80;98.50;;;;;;5052635;28;20223;-37
2022/04/10 05:54:14;;;;;;;12.30;7.50;;;5.80;98.60;;;;;;5059016;28;20232;-37
2022/04/10 05:56:48;;;;;;;9.83;6.83;;;5.80;98.50;;;;;;5054819;28;20698;-37
2022/04/10 05:59:17;;;;;;;11.30;6.60;;;5.80;98.50;;;;;;5056941;28;20245;-37
2022/04/10 06:01:47;;;;;;;8.47;6.60;;;5.90;98.60;;;;;;5051533;28;20583;-38
2022/04/10 06:04:15;;;;;;;10.10;6.53;;;5.90;98.60;;;;;;5056032;28;20241;-37
2022/04/10 06:06:44;;;;;;;13.93;7.17;;;5.90;98.60;;;;;;5051291;28;20269;-38
2022/04/10 06:09:14;;;;;;;9.30;7.03;;;5.90;98.60;;;;;;5057258;28;20208;-37
2022/04/10 06:11:41;;;;;;;11.57;6.90;;;6.00;98.70;;;;;;5046820;28;20202;-37
2022/04/10 06:14:15;;;;;;;10.60;6.80;;;5.90;98.70;;;;;;5058979;28;20208;-37
2022/04/10 06:16:42;;;;;;;12.37;7.83;;;6.00;98.80;;;;;;5062136;28;20195;-38
2022/04/10 06:19:10;;;;;;;11.90;7.10;;;6.00;99.00;;;;;;5067130;28;20265;-37
2022/04/10 06:21:43;;;;;;;11.87;7.07;;;6.00;98.90;;;;;;5065075;28;20197;-37
2022/04/10 06:24:13;;;;;;;11.63;6.97;;;6.00;99.20;;;;;;5062674;28;20657;-37
2022/04/10 06:26:48;;;;;;;10.23;6.90;;;6.10;99.00;;;;;;5065661;28;20220;-37
2022/04/10 06:29:18;;;;;;;13.93;7.43;;;6.10;99.00;;;;;;5050381;28;20287;-37
2022/04/10 06:31:46;;;;;;;14.33;8.43;;;6.10;99.00;;;;;;5056919;28;20212;-37
2022/04/10 06:34:13;;;;;;;10.07;7.00;;;6.10;98.90;;;;;;5061858;28;20211;-37
2022/04/10 06:36:43;;;;;;;11.93;7.17;;;6.20;99.30;;;;;;5053113;28;20674;-37
2022/04/10 06:39:21;;;;;;;12.80;8.37;;;6.20;99.00;;;;;;5057664;28;20253;-37
2022/04/10 06:41:53;;;;;;;15.03;8.60;;;6.20;99.20;;;;;;5047398;28;20204;-38
2022/04/10 06:44:23;;;;;;;10.43;7.70;;;6.30;99.20;;;;;;5050967;28;20258;-37
2022/04/10 06:46:52;;;;;;;12.47;8.00;;;6.30;99.30;;;;;;5070249;28;20294;-37
2022/04/10 06:49:23;;;;;;;14.77;8.23;;;6.40;99.20;;;;;;5062863;28;20215;-37
2022/04/10 06:51:52;;;;;;;13.07;8.10;;;6.40;99.20;;;;;;5054838;28;20293;-38
2022/04/10 06:54:20;;;;;;;10.13;7.27;;;6.40;99.20;;;;;;5067984;28;20230;-37
2022/04/10 06:56:50;;;;;;;15.37;7.97;;;6.50;99.30;;;;;;5067120;28;20294;-38
2022/04/10 06:59:22;;;;;;;11.63;8.20;;;6.50;99.30;;;;;;5056062;28;20642;-37
2022/04/10 07:01:51;;;;;;;12.23;7.90;;;6.60;99.40;;;;;;5051536;28;20201;-38
2022/04/10 07:04:22;;;;;;;14.17;8.13;;;6.60;99.40;;;;;;5065362;28;20227;-37
2022/04/10 07:06:54;;;;;;;11.23;7.07;;;6.70;99.60;;;;;;5063201;28;20347;-37
2022/04/10 07:09:21;;;;;;;16.23;8.10;;;6.70;99.50;;;;;;5058543;28;20203;-38
2022/04/10 07:11:59;;;;;;;13.87;7.97;;;6.70;99.50;;;;;;5053947;28;20243;-38
2022/04/10 07:14:28;;;;;;;14.10;7.33;;;6.80;99.90;;;;;;5074971;28;20742;-38
2022/04/10 07:16:55;;;;;;;11.47;7.63;;;6.80;99.60;;;;;;5067519;28;20213;-38
2022/04/10 07:19:25;;;;;;;13.53;7.57;;;6.90;99.60;;;;;;5066483;28;20211;-38
2022/04/10 07:24:44;;;;;;;12.83;7.87;;;7.00;99.70;;;;;;5059684;28;20219;-38
2022/04/10 07:27:13;;;;;;;12.27;8.03;;;7.00;99.80;;;;;;5059797;28;20211;-38
2022/04/10 07:29:44;;;;;;;13.73;7.97;;;7.10;99.90;;;;;;5056945;28;20306;-38
2022/04/10 07:32:15;;;;;;;10.43;7.33;;;7.10;99.90;;;;;;5054516;28;20205;-38
2022/04/10 07:34:43;;;;;;;10.57;7.00;;;7.20;99.90;;;;;;5051406;28;20612;-37
2022/04/10 07:37:15;;;;;;;10.67;7.10;;;7.30;99.90;;;;;;5056140;28;20212;-37
2022/04/10 07:39:47;;;;;;;11.53;7.00;;;7.30;99.90;;;;;;5060534;28;20188;-37
2022/04/10 07:42:16;;;;;;;13.07;7.23;;;7.40;99.90;;;;;;5052945;28;20208;-38
2022/04/10 07:45:06;;;;;;;9.20;6.80;;;7.40;99.90;;;;;;5064459;28;20223;-37
2022/04/10 07:47:33;;;;;;;12.63;7.60;;;7.50;99.90;;;;;;5060324;28;20231;-38
2022/04/10 07:50:04;;;;;;;10.60;7.00;;;7.60;99.90;;;;;;5052075;28;20207;-38
2022/04/10 07:52:36;;;;;;;10.93;7.50;;;7.60;99.90;;;;;;5066667;28;20230;-38
2022/04/10 07:55:04;;;;;;;11.03;7.03;;;7.70;99.90;;;;;;5066020;28;20235;-38
2022/04/10 07:57:36;;;;;;;14.93;7.20;;;7.80;99.90;;;;;;5060509;28;20200;-38
2022/04/10 08:00:04;;;;;;;10.87;7.13;;;7.80;99.90;;;;;;5066958;28;20192;-43
2022/04/10 08:02:36;;;;;;;10.10;5.97;;;7.90;99.90;;;;;;5066926;28;20273;-43
2022/04/10 08:05:04;;;;;;;9.97;6.50;;;8.00;99.90;;;;;;5049202;28;20779;-44
2022/04/10 08:07:31;;;;;;;10.37;7.23;;;8.00;99.90;;;;;;5067278;28;20212;-43
2022/04/10 08:10:04;;;;;;;12.03;7.37;;;8.10;99.90;;;;;;5058015;28;20211;-44
2022/04/10 08:12:34;;;;;;;10.07;6.53;;;8.20;99.90;;;;;;5047071;28;20219;-38
2022/04/10 08:15:01;;;;;;;9.47;5.60;;;8.20;99.90;;;;;;5060697;28;20196;-38
2022/04/10 08:17:34;;;;;;;9.30;5.70;;;8.30;99.90;;;;;;5050002;28;20312;-38
2022/04/10 08:20:07;;;;;;;9.27;5.30;;;8.40;99.90;;;;;;5074265;28;20681;-38
2022/04/10 08:22:37;;;;;;;9.97;5.43;;;8.40;99.90;;;;;;5085900;28;20260;-38
2022/04/10 08:25:11;;;;;;;10.07;5.63;;;8.50;99.90;;;;;;5066519;28;20555;-38
2022/04/10 08:27:38;;;;;;;9.63;5.50;;;8.50;99.90;;;;;;5037176;28;20665;-38
2022/04/10 08:30:10;;;;;;;9.10;5.17;;;8.60;99.90;;;;;;5051684;28;20516;-37
2022/04/10 08:32:42;;;;;;;4.87;3.30;;;8.60;99.90;;;;;;5058711;28;20223;-38
2022/04/10 08:35:11;;;;;;;6.40;3.03;;;8.70;99.90;;;;;;5062332;28;20731;-38
2022/04/10 08:37:43;;;;;;;6.43;3.37;;;8.70;99.90;;;;;;5051486;28;20721;-38
2022/04/10 08:40:11;;;;;;;6.30;3.77;;;8.80;99.90;;;;;;5053825;28;20287;-38
2022/04/10 08:42:41;;;;;;;5.67;3.80;;;8.80;99.90;;;;;;5057752;28;20223;-38
2022/04/10 08:45:11;;;;;;;8.03;4.50;;;8.90;99.90;;;;;;5066820;28;20592;-38
2022/04/10 08:47:39;;;;;;;5.97;3.53;;;8.90;99.90;;;;;;5063410;28;20219;-38
2022/04/10 08:50:07;;;;;;;8.63;3.73;;;9.00;99.90;;;;;;5057546;28;20207;-38
2022/04/10 08:52:35;;;;;;;4.77;2.50;;;9.00;99.90;;;;;;5058765;28;20281;-38
2022/04/10 08:55:03;;;;;;;6.13;2.80;;;9.10;99.90;;;;;;5060487;28;20304;-38
2022/04/10 08:57:32;;;;;;;7.80;2.53;;;9.10;99.90;;;;;;5053494;28;20243;-44
2022/04/10 09:00:03;;;;;;;6.00;2.43;;;9.20;99.90;;;;;;5059019;28;20289;-44
2022/04/10 09:02:32;;;;;;;3.67;2.17;;;9.20;99.90;;;;;;5056164;28;20288;-43
2022/04/10 09:05:04;;;;;;;5.13;2.50;;;9.20;99.90;;;;;;5052442;28;20302;-44
2022/04/10 09:07:32;;;;;;;6.40;2.80;;;9.20;99.90;;;;;;5065541;28;20196;-44
2022/04/10 09:10:00;;;;;;;7.13;2.50;;;9.30;99.90;;;;;;5064060;28;20310;-44
2022/04/10 09:12:27;;;;;;;7.17;2.93;;;9.30;99.90;;;;;;5056302;28;20525;-43
2022/04/10 09:15:03;;;;;;;5.97;2.57;;;9.40;99.90;;;;;;5063561;28;20219;-44
2022/04/10 09:17:33;;;;;;;5.47;2.70;;;9.40;99.90;;;;;;5056342;28;20259;-43
2022/04/10 09:20:07;;;;;;;6.20;2.93;;;9.40;99.90;;;;;;5066629;28;20223;-43
2022/04/10 09:22:38;;;;;;;4.27;2.57;;;9.50;99.90;;;;;;5056260;28;20262;-44
2022/04/10 09:25:16;;;;;;;4.93;2.43;;;9.50;99.90;;;;;;5047039;28;20733;-44
2022/04/10 09:27:46;;;;;;;6.13;2.40;;;9.60;99.90;;;;;;5056580;28;20204;-44
2022/04/10 09:30:18;;;;;;;5.57;2.40;;;9.60;99.90;;;;;;5047131;28;20294;-44
2022/04/10 09:32:52;;;;;;;4.23;2.87;;;9.70;99.90;;;;;;5056246;28;20345;-43
2022/04/10 09:35:22;;;;;;;6.67;2.80;;;9.70;99.90;;;;;;5058971;28;20470;-43
2022/04/10 09:37:57;;;;;;;4.17;2.33;;;9.70;99.90;;;;;;5064465;28;20212;-44
2022/04/10 09:40:32;;;;;;;6.87;3.47;;;9.80;99.90;;;;;;5061561;28;20203;-44
2022/04/10 09:43:05;;;;;;;5.30;2.60;;;9.80;99.90;;;;;;5054553;28;20223;-44
2022/04/10 09:45:33;;;;;;;4.97;2.70;;;9.90;99.90;;;;;;5066297;28;20222;-44
2022/04/10 09:48:38;;;;;;;4.83;2.97;;;9.90;99.90;;;;;;5065859;28;20203;-44
2022/04/10 09:51:11;;;;;;;4.43;2.80;;;10.00;99.90;;;;;;5041097;28;20227;-43
2022/04/10 09:53:38;;;;;;;6.87;2.73;;;10.00;99.90;;;;;;5059166;28;20349;-43
2022/04/10 09:56:08;;;;;;;5.67;2.93;;;10.10;99.90;;;;;;5058319;28;20204;-42
2022/04/10 09:58:42;;;;;;;3.93;2.90;;;10.10;99.90;;;;;;5051973;28;20218;-43
2022/04/10 10:01:12;;;;;;;4.40;2.30;;;10.20;99.90;;;;;;5062437;28;20204;-43
2022/04/10 10:03:41;;;;;;;6.10;3.23;;;10.20;99.90;;;;;;5045787;28;20209;-42
2022/04/10 10:06:12;;;;;;;4.40;2.77;;;10.30;99.90;;;;;;5062509;28;20228;-43
2022/04/10 10:08:45;;;;;;;6.63;3.17;;;10.30;99.90;;;;;;5061106;28;20639;-38
2022/04/10 10:11:13;;;;;;;5.10;3.13;;;10.40;99.90;;;;;;5054998;28;20210;-38
2022/04/10 10:13:46;;;;;;;4.53;3.00;;;10.50;99.90;;;;;;5056202;28;20211;-39
2022/04/10 10:16:17;;;;;;;6.50;3.10;;;10.50;99.90;;;;;;5047120;28;20768;-37
2022/04/10 10:18:49;;;;;;;6.10;3.23;;;10.60;99.90;;;;;;5066448;28;20211;-38
2022/04/10 10:21:17;;;;;;;3.90;3.10;;;10.70;99.90;;;;;;5055051;28;20298;-37
2022/04/10 10:23:50;;;;;;;4.47;3.03;;;10.70;99.90;;;;;;5056821;28;20210;-37
2022/04/10 10:26:28;;;;;;;4.40;2.80;;;10.80;99.90;;;;;;5055951;28;20666;-38
2022/04/10 10:29:08;;;;;;;6.37;3.20;;;10.80;99.90;;;;;;5060903;28;20199;-36
2022/04/10 10:31:35;;;;;;;5.50;3.20;;;10.90;99.90;;;;;;5060027;28;20199;-38
2022/04/10 10:34:08;;;;;;;5.13;3.40;;;11.00;99.90;;;;;;5056428;28;20610;-38
2022/04/10 10:36:39;;;;;;;4.93;2.90;;;11.10;99.90;;;;;;5059908;28;20629;-38
2022/04/10 10:39:10;;;;;;;8.37;3.00;;;11.10;99.90;;;;;;5057765;28;20195;-38
2022/04/10 10:41:43;;;;;;;3.87;2.77;;;11.20;99.90;;;;;;5054180;28;20228;-38
2022/04/10 10:44:38;;;;;;;4.53;3.00;;;11.30;99.90;;;;;;5065713;28;20697;-37
2022/04/10 10:47:05;;;;;;;5.03;3.13;;;11.40;99.90;;;;;;5061384;28;20214;-38
2022/04/10 10:49:51;;;;;;;5.30;3.07;;;11.40;99.90;;;;;;5068041;28;20282;-37
2022/04/10 10:52:18;;;;;;;5.13;2.80;;;11.50;99.90;;;;;;5066564;28;20253;-38
2022/04/10 10:54:52;;;;;;;6.03;3.07;;;11.60;99.90;;;;;;5060429;28;20590;-37
2022/04/10 10:57:31;;;;;;;5.03;3.80;;;11.70;99.90;;;;;;5050057;28;20255;-37
2022/04/10 11:00:09;;;;;;;7.37;3.97;;;11.70;99.90;;;;;;5047353;28;20204;-37
2022/04/10 11:02:38;;;;;;;4.90;3.70;;;11.80;99.90;;;;;;5049270;28;20207;-37
2022/04/10 11:05:27;;;;;;;6.17;3.53;;;11.80;99.90;;;;;;5066049;28;20200;-37
2022/04/10 11:08:00;;;;;;;5.57;3.47;;;11.80;99.90;;;;;;5064905;28;20203;-37
2022/04/10 11:10:29;;;;;;;5.77;3.40;;;11.90;99.90;;;;;;5060371;28;20210;-41
2022/04/10 11:13:08;;;;;;;5.17;2.87;;;12.00;99.90;;;;;;5068518;28;20208;-41
2022/04/10 11:15:48;;;;;;;5.27;3.10;;;12.00;99.90;;;;;;5068192;28;20214;-41
2022/04/10 11:18:31;;;;;;;5.77;3.67;;;12.10;99.90;;;;;;5063882;28;20215;-41
2022/04/10 11:21:07;;;;;;;4.00;2.67;;;12.10;99.90;;;;;;5061915;28;20191;-41
2022/04/10 11:23:47;;;;;;;8.00;3.60;;;12.20;99.90;;;;;;5069225;28;20760;-40
2022/04/10 11:26:19;;;;;;;4.87;2.80;;;12.30;99.90;;;;;;5066994;28;20207;-40
2022/04/10 11:29:04;;;;;;;5.70;2.70;;;12.40;99.90;;;;;;5049117;28;20208;-37
2022/04/10 11:31:35;;;;;;;3.87;2.60;;;12.50;99.90;;;;;;5048072;28;20573;-37
2022/04/10 11:34:12;;;;;;;5.23;2.83;;;12.50;99.90;;;;;;5048541;28;20602;-36
2022/04/10 11:36:54;;;;;;;4.40;2.77;;;12.60;99.90;;;;;;5067673;28;20352;-37
2022/04/10 11:39:50;;;;;;;3.47;2.33;;;12.70;99.90;;;;;;5055515;28;20229;-37
2022/04/10 11:42:18;;;;;;;4.77;2.93;;;12.80;99.90;;;;;;5068053;28;20387;-37
2022/04/10 11:44:49;;;;;;;5.23;2.77;;;12.80;99.90;;;;;;5068230;28;20532;-36
2022/04/10 11:47:24;;;;;;;4.40;3.07;;;12.90;99.90;;;;;;5061814;28;20200;-40
2022/04/10 11:49:52;;;;;;;4.73;2.70;;;12.90;99.90;;;;;;5061022;28;20294;-40
2022/04/10 11:52:23;;;;;;;2.97;2.57;;;12.90;99.90;;;;;;5067462;28;20539;-41
2022/04/10 11:54:52;;;;;;;3.97;2.40;;;12.90;99.90;;;;;;5052044;28;20248;-42
2022/04/10 11:57:26;;;;;;;3.77;2.57;;;12.90;99.90;;;;;;5057248;28;20272;-40
2022/04/10 11:59:53;;;;;;;4.70;2.53;;;13.00;99.90;;;;;;5060262;28;20303;-37
2022/04/10 12:02:24;;;;;;;3.80;2.27;;;13.00;99.90;;;;;;5060565;28;20191;-41
2022/04/10 12:04:53;;;;;;;3.77;1.97;;;13.00;99.90;;;;;;5065568;28;20568;-36
2022/04/10 12:07:22;;;;;;;4.07;2.00;;;13.00;99.90;;;;;;5065273;28;20282;-36
2022/04/10 12:09:55;;;;;;;3.43;2.10;;;13.00;99.90;;;;;;5055010;28;20219;-42
2022/04/10 12:12:46;;;;;;;3.90;2.10;;;13.00;99.90;;;;;;5064128;28;20658;-41
2022/04/10 12:15:16;;;;;;;2.80;2.27;;;13.10;99.90;;;;;;5057433;28;20259;-42
2022/04/10 12:17:43;;;;;;;4.53;2.03;;;13.10;99.90;;;;;;5051586;28;20592;-42
2022/04/10 12:20:33;;;;;;;3.67;2.23;;;13.10;99.90;;;;;;5054253;28;20203;-42
2022/04/10 12:23:00;;;;;;;3.07;1.90;;;13.20;99.90;;;;;;5064718;28;20823;-42
2022/04/10 12:25:28;;;;;;;3.87;2.27;;;13.20;99.90;;;;;;5067902;28;20738;-42
2022/04/10 12:27:57;;;;;;;4.70;2.20;;;13.20;99.90;;;;;;5066462;28;20191;-42
2022/04/10 12:30:25;;;;;;;4.43;2.50;;;13.20;99.80;;;;;;5065957;28;20720;-42
2022/04/10 12:32:55;;;;;;;4.57;2.40;;;13.20;99.90;;;;;;5055484;28;20258;-42
2022/04/10 12:35:22;;;;;;;6.97;2.33;;;13.20;99.90;;;;;;5052445;28;20512;-42
2022/04/10 12:38:07;;;;;;;3.73;2.10;;;13.20;99.90;;;;;;5052274;28;20228;-42
2022/04/10 12:40:37;;;;;;;3.10;2.20;;;13.20;99.90;;;;;;5060633;28;20203;-42
2022/04/10 12:43:05;;;;;;;4.20;2.00;;;13.30;99.90;;;;;;5065966;28;20223;-42
2022/04/10 12:45:40;;;;;;;5.37;2.43;;;13.30;99.90;;;;;;5060154;28;20270;-42
2022/04/10 12:48:22;;;;;;;4.43;2.33;;;13.30;99.90;;;;;;5049897;28;20204;-43
2022/04/10 12:51:10;;;;;;;3.53;2.30;;;13.30;99.90;;;;;;5059975;28;20774;-42
2022/04/10 12:53:47;;;;;;;4.37;2.10;;;13.30;99.90;;;;;;5050371;28;20247;-42
2022/04/10 12:56:22;;;;;;;3.90;2.40;;;13.30;99.90;;;;;;5043574;28;20209;-42
2022/04/10 12:58:53;;;;;;;5.50;2.40;;;13.30;99.90;;;;;;5046872;28;20231;-42
2022/04/10 13:01:27;;;;;;;6.07;2.37;;;13.30;99.90;;;;;;5036311;28;20570;-42
2022/04/10 13:04:02;;;;;;;5.60;2.80;;;13.30;99.90;;;;;;5037480;28;20261;-42
2022/04/10 13:06:46;;;;;;;5.03;2.60;;;13.40;99.90;;;;;;5042996;28;20193;-42
2022/04/10 13:09:15;;;;;;;3.87;2.47;;;13.40;99.90;;;;;;5037521;28;20211;-36
2022/04/10 13:11:43;;;;;;;3.47;2.03;;;13.50;99.90;;;;;;5038927;28;20217;-37
2022/04/10 13:14:15;;;;;;;6.00;2.03;;;13.50;99.90;;;;;;5045982;28;20266;-37